Observations

85.8 °F / 29.9 °C
E at 20 MPH
63%
71.8°F / 22.1 °C
29.84" (1010 mb)
10 mile(s)
partly cloudy

Observations

Surface


Raw METARs

2017/02/24 05:20
PKWA 240520Z AUTO 08017KT 10SM SCT029 SCT036 30/22 A2984 RMK AO2 T02990221

Translated METAR

Kwajalein, Bucholz AAF, Kwajalein KMR ATOL Airport, Marshall Islands (PKWA) 08-43N 167-44E 2M
Feb 24, 2017 - 12:20 AM EST / 2017.02.24 0520 UTC
Wind: from the E (080 degrees) at 20 MPH (17 KT):0
Visibility: 10 mile(s):0
Sky conditions: partly cloudy
Temperature: 85.8 F (29.9 C)
Heat index: 91.8 F (33.2 C):1
Dew Point: 71.8 F (22.1 C)
Relative Humidity: 63%
Pressure (altimeter): 29.84 in. Hg (1010 hPa)
ob: PKWA 240520Z AUTO 08017KT 10SM SCT029 SCT036 30/22 A2984 RMK AO2 T02990221
cycle: 5



Upper Air


Latest Skew-T

Skew T Diagram

Latest Data File